createdAt,value
2023-02-22T00:02:25.827Z,4.78
2023-02-22T00:04:58.350Z,4.38
2023-02-22T00:07:34.202Z,5.07
2023-02-22T00:10:09.658Z,5.53
2023-02-22T00:12:46.100Z,5.00
2023-02-22T00:15:19.601Z,4.57
2023-02-22T00:17:52.361Z,4.90
2023-02-22T00:20:25.275Z,4.47
2023-02-22T00:23:21.956Z,4.97
2023-02-22T00:25:54.355Z,4.78
2023-02-22T00:28:30.926Z,4.93
2023-02-22T00:31:04.258Z,5.82
2023-02-22T00:33:37.281Z,4.90
2023-02-22T00:36:15.128Z,5.00
2023-02-22T00:38:54.974Z,5.40
2023-02-22T00:41:26.406Z,5.13
2023-02-22T00:43:58.047Z,4.75
2023-02-22T00:46:29.885Z,4.63
2023-02-22T00:49:04.525Z,4.78
2023-02-22T00:51:38.233Z,4.63
2023-02-22T00:54:21.091Z,5.20
2023-02-22T00:56:55.517Z,5.40
2023-02-22T00:59:28.177Z,4.40
2023-02-22T01:02:00.277Z,4.88
2023-02-22T01:04:41.555Z,4.72
2023-02-22T01:07:14.717Z,4.65
2023-02-22T01:09:49.625Z,4.97
2023-02-22T01:12:21.434Z,4.65
2023-02-22T01:14:57.307Z,5.20
2023-02-22T01:17:29.463Z,4.70
2023-02-22T01:20:01.539Z,4.88
2023-02-22T01:22:33.494Z,5.72
2023-02-22T01:25:09.011Z,5.18
2023-02-22T01:27:42.410Z,4.70
2023-02-22T01:30:16.805Z,5.72
2023-02-22T01:32:51.449Z,5.07
2023-02-22T01:35:26.286Z,5.20
2023-02-22T01:37:58.396Z,5.00
2023-02-22T01:40:36.283Z,4.63
2023-02-22T01:43:18.725Z,4.60
2023-02-22T01:45:58.484Z,4.57
2023-02-22T01:48:37.231Z,4.72
2023-02-22T01:51:14.947Z,4.57
2023-02-22T01:53:53.634Z,5.70
2023-02-22T01:56:30.978Z,4.82
2023-02-22T01:59:07.237Z,4.93
2023-02-22T02:01:43.325Z,4.60
2023-02-22T02:04:18.703Z,4.60
2023-02-22T02:06:51.818Z,5.28
2023-02-22T02:09:32.027Z,5.43
2023-02-22T02:12:08.509Z,4.82
2023-02-22T02:14:41.260Z,4.78
2023-02-22T02:17:16.554Z,4.90
2023-02-22T02:19:55.718Z,5.25
2023-02-22T02:22:45.810Z,4.95
2023-02-22T02:25:53.069Z,4.60
2023-02-22T02:29:04.750Z,4.93
2023-02-22T02:32:13.420Z,4.85
2023-02-22T02:34:58.843Z,5.22
2023-02-22T02:37:40.611Z,4.53
2023-02-22T02:40:24.100Z,4.38
2023-02-22T02:43:04.013Z,5.05
2023-02-22T02:45:42.369Z,5.03
2023-02-22T02:48:17.733Z,5.38
2023-02-22T02:50:53.851Z,5.05
2023-02-22T02:53:36.429Z,5.47
2023-02-22T02:56:09.103Z,4.80
2023-02-22T02:58:53.382Z,5.28
2023-02-22T03:01:48.437Z,4.85
2023-02-22T03:04:47.513Z,5.32
2023-02-22T03:07:43.593Z,4.50
2023-02-22T03:10:42.112Z,4.95
2023-02-22T03:13:22.967Z,4.57
2023-02-22T03:16:05.417Z,4.78
2023-02-22T03:18:48.102Z,4.68
2023-02-22T03:21:27.904Z,5.07
2023-02-22T03:24:21.794Z,5.28
2023-02-22T03:27:00.426Z,5.18
2023-02-22T03:29:37.627Z,4.75
2023-02-22T03:32:15.468Z,4.25
2023-02-22T03:34:50.999Z,5.10
2023-02-22T03:37:36.264Z,5.53
2023-02-22T03:40:27.007Z,5.75
2023-02-22T03:43:41.586Z,5.97
2023-02-22T03:46:23.351Z,5.32
2023-02-22T03:49:03.461Z,5.57
2023-02-22T03:51:35.926Z,5.55
2023-02-22T03:54:17.136Z,5.40
2023-02-22T03:57:01.931Z,4.95
2023-02-22T03:59:34.092Z,5.20
2023-02-22T04:02:06.176Z,5.35
2023-02-22T04:04:52.377Z,5.60
2023-02-22T04:07:39.925Z,5.13
2023-02-22T04:10:12.720Z,5.07
2023-02-22T04:12:47.467Z,4.50
2023-02-22T04:15:54.530Z,4.95
2023-02-22T04:18:24.386Z,4.97
2023-02-22T04:20:56.606Z,5.18
2023-02-22T04:23:28.933Z,5.82
2023-02-22T04:26:01.331Z,5.50
2023-02-22T04:28:36.008Z,5.55
2023-02-22T04:31:08.917Z,6.22
2023-02-22T04:33:40.996Z,5.43
2023-02-22T04:36:16.382Z,6.35
2023-02-22T04:38:48.533Z,5.18
2023-02-22T04:41:23.872Z,5.40
2023-02-22T04:43:59.796Z,5.35
2023-02-22T04:46:32.139Z,5.72
2023-02-22T04:49:04.465Z,5.13
2023-02-22T04:51:37.127Z,5.50
2023-02-22T04:54:09.336Z,5.57
2023-02-22T04:56:41.934Z,5.28
2023-02-22T04:59:16.696Z,5.70
2023-02-22T05:01:49.336Z,6.13
2023-02-22T05:04:45.562Z,6.22
2023-02-22T05:07:18.443Z,6.38
2023-02-22T05:09:50.420Z,5.35
2023-02-22T05:12:22.849Z,6.03
2023-02-22T05:14:57.502Z,5.70
2023-02-22T05:17:29.844Z,6.43
2023-02-22T05:20:02.201Z,6.55
2023-02-22T05:22:34.681Z,5.78
2023-02-22T05:25:07.492Z,5.65
2023-02-22T05:27:39.891Z,5.82
2023-02-22T05:30:16.839Z,6.85
2023-02-22T05:32:49.752Z,6.35
2023-02-22T05:35:22.536Z,7.20
2023-02-22T05:37:55.453Z,6.63
2023-02-22T05:40:29.815Z,6.75
2023-02-22T05:43:03.257Z,7.25
2023-02-22T05:45:37.756Z,6.80
2023-02-22T05:48:09.878Z,7.00
2023-02-22T05:50:41.796Z,6.80
2023-02-22T05:53:14.207Z,6.47
2023-02-22T05:55:46.632Z,6.18
2023-02-22T05:58:19.309Z,6.10
2023-02-22T06:00:53.875Z,5.90
2023-02-22T06:03:26.096Z,6.10
2023-02-22T06:05:58.298Z,5.18
2023-02-22T06:08:30.572Z,6.28
2023-02-22T06:11:30.552Z,6.07
2023-02-22T06:14:02.820Z,6.13
2023-02-22T06:16:37.709Z,5.30
2023-02-22T06:19:09.903Z,6.65
2023-02-22T06:21:42.392Z,6.35
2023-02-22T06:24:14.630Z,5.60
2023-02-22T06:26:46.603Z,6.22
2023-02-22T06:29:18.985Z,6.28
2023-02-22T06:31:54.299Z,6.05
2023-02-22T06:34:26.389Z,6.25
2023-02-22T06:36:59.994Z,6.88
2023-02-22T06:39:32.384Z,6.40
2023-02-22T06:42:04.771Z,5.72
2023-02-22T06:44:37.153Z,6.03
2023-02-22T06:47:11.757Z,6.35
2023-02-22T06:49:44.010Z,5.75
2023-02-22T06:52:15.811Z,5.78
2023-02-22T06:54:47.999Z,6.85
2023-02-22T06:57:20.793Z,6.85
2023-02-22T06:59:52.958Z,7.47
2023-02-22T07:02:33.008Z,7.07
2023-02-22T07:05:18.547Z,6.30
2023-02-22T07:07:52.708Z,7.18
2023-02-22T07:10:31.320Z,6.50
2023-02-22T07:13:03.719Z,6.72
2023-02-22T07:15:37.036Z,7.93
2023-02-22T07:18:12.333Z,6.72
2023-02-22T07:20:44.450Z,7.72
2023-02-22T07:23:18.334Z,7.80
2023-02-22T07:25:50.335Z,7.07
2023-02-22T07:28:22.236Z,7.45
2023-02-22T07:30:54.658Z,6.38
2023-02-22T07:33:29.230Z,6.25
2023-02-22T07:36:01.816Z,7.38
2023-02-22T07:38:34.154Z,6.78
2023-02-22T07:41:06.739Z,7.05
2023-02-22T07:43:39.229Z,7.25
2023-02-22T07:46:11.735Z,7.18
2023-02-22T07:48:46.871Z,7.60
2023-02-22T07:51:21.195Z,8.98
2023-02-22T07:53:53.340Z,8.93
2023-02-22T07:56:25.573Z,8.85
2023-02-22T07:58:57.523Z,9.20
2023-02-22T08:01:29.835Z,8.93
2023-02-22T08:04:04.677Z,10.68
2023-02-22T08:06:37.191Z,11.02
2023-02-22T08:09:09.614Z,11.13
2023-02-22T08:11:42.316Z,10.55
2023-02-22T08:14:14.711Z,12.05
2023-02-22T08:16:47.490Z,11.20
2023-02-22T08:19:23.263Z,11.20
2023-02-22T08:21:56.112Z,10.88
2023-02-22T08:24:28.484Z,9.98
2023-02-22T08:27:01.113Z,10.55
2023-02-22T08:29:34.711Z,9.82
2023-02-22T08:32:08.269Z,10.38
2023-02-22T08:34:43.838Z,9.43
2023-02-22T08:37:17.115Z,10.23
2023-02-22T08:39:50.192Z,9.25
2023-02-22T08:42:23.255Z,8.15
2023-02-22T08:44:56.376Z,8.35
2023-02-22T08:47:30.182Z,7.68
2023-02-22T08:50:05.537Z,7.10
2023-02-22T08:52:38.688Z,7.75
2023-02-22T08:55:12.172Z,7.65
2023-02-22T08:57:45.531Z,7.63
2023-02-22T09:00:20.267Z,7.60
2023-02-22T09:02:54.099Z,6.32
2023-02-22T09:05:31.320Z,6.57
2023-02-22T09:08:05.457Z,6.65
2023-02-22T09:10:41.132Z,6.60
2023-02-22T09:13:14.607Z,7.15
2023-02-22T09:15:46.889Z,6.80
2023-02-22T09:18:21.492Z,6.85
2023-02-22T09:20:56.647Z,6.20
2023-02-22T09:23:30.289Z,6.50
2023-02-22T09:26:02.925Z,6.22
2023-02-22T09:28:35.525Z,5.75
2023-02-22T09:31:08.084Z,6.05
2023-02-22T09:33:40.811Z,5.85
2023-02-22T09:36:16.159Z,6.03
2023-02-22T09:38:49.006Z,6.00
2023-02-22T09:41:35.214Z,6.28
2023-02-22T09:44:20.203Z,5.65
2023-02-22T09:46:56.530Z,4.45
2023-02-22T09:49:38.239Z,5.07
2023-02-22T09:52:22.125Z,4.72
2023-02-22T09:55:05.547Z,4.78
2023-02-22T09:57:42.993Z,4.43
2023-02-22T10:00:21.583Z,4.22
2023-02-22T10:03:04.374Z,4.80
2023-02-22T10:05:44.142Z,5.00
2023-02-22T10:11:28.971Z,5.32
2023-02-22T10:14:09.897Z,5.00
2023-02-22T10:16:53.761Z,5.22
2023-02-22T10:19:35.848Z,5.25
2023-02-22T10:22:30.770Z,4.95
2023-02-22T10:25:09.798Z,4.90
2023-02-22T10:27:46.566Z,4.78
2023-02-22T10:30:25.738Z,5.38
2023-02-22T10:33:05.748Z,4.55
2023-02-22T10:35:41.536Z,4.70
2023-02-22T10:38:23.929Z,5.05
2023-02-22T10:41:04.207Z,5.13
2023-02-22T10:43:36.799Z,5.20
2023-02-22T10:46:12.807Z,5.28
2023-02-22T10:48:48.324Z,5.38
2023-02-22T10:51:34.205Z,5.10
2023-02-22T10:54:27.249Z,5.05
2023-02-22T10:57:04.521Z,4.97
2023-02-22T10:59:38.842Z,5.60
2023-02-22T11:02:21.800Z,5.70
2023-02-22T11:04:57.460Z,6.28
2023-02-22T11:07:32.218Z,5.70
2023-02-22T11:10:08.559Z,5.30
2023-02-22T11:12:48.247Z,4.85
2023-02-22T11:15:32.319Z,5.55
2023-02-22T11:18:07.511Z,4.82
2023-02-22T11:20:43.358Z,4.93
2023-02-22T11:23:15.940Z,5.10
2023-02-22T11:25:48.564Z,5.65
2023-02-22T11:28:33.207Z,4.50
2023-02-22T11:31:19.824Z,4.65
2023-02-22T11:33:58.479Z,4.55
2023-02-22T11:36:41.404Z,4.95
2023-02-22T11:39:28.474Z,5.30
2023-02-22T11:42:01.602Z,4.38
2023-02-22T11:44:37.279Z,4.78
2023-02-22T11:47:15.755Z,4.80
2023-02-22T11:49:49.562Z,4.68
2023-02-22T11:52:28.729Z,4.65
2023-02-22T11:55:13.115Z,5.03
2023-02-22T11:57:57.514Z,4.85
2023-02-22T12:00:43.836Z,4.30
2023-02-22T12:03:42.529Z,4.75
2023-02-22T12:06:25.773Z,4.97
2023-02-22T12:09:10.549Z,4.22
2023-02-22T12:11:55.374Z,4.45
2023-02-22T12:14:38.437Z,4.35
2023-02-22T12:17:35.516Z,4.15
2023-02-22T12:20:21.927Z,4.30
2023-02-22T12:23:10.192Z,4.03
2023-02-22T12:25:50.999Z,4.60
2023-02-22T12:28:28.199Z,4.25
2023-02-22T12:31:17.865Z,3.97
2023-02-22T12:34:13.265Z,4.03
2023-02-22T12:36:52.276Z,3.72
2023-02-22T12:39:52.224Z,3.72
2023-02-22T12:42:33.285Z,3.65
2023-02-22T12:45:11.772Z,4.22
2023-02-22T12:48:05.648Z,3.90
2023-02-22T12:50:50.160Z,4.53
2023-02-22T12:53:29.204Z,3.63
2023-02-22T12:59:30.044Z,4.40
2023-02-22T13:02:15.049Z,4.32
2023-02-22T13:04:47.971Z,23.63
2023-02-22T13:07:43.606Z,4.60
2023-02-22T13:10:38.845Z,4.10
2023-02-22T13:13:23.028Z,4.18
2023-02-22T13:16:04.489Z,3.80
2023-02-22T13:18:43.131Z,4.05
2023-02-22T13:21:24.053Z,3.75
2023-02-22T13:24:06.933Z,3.65
2023-02-22T13:26:48.728Z,3.65
2023-02-22T13:29:32.009Z,3.70
2023-02-22T13:32:17.323Z,3.75
2023-02-22T13:35:01.491Z,3.70
2023-02-22T13:37:50.489Z,3.70
2023-02-22T13:40:47.246Z,6.25
2023-02-22T13:43:52.164Z,4.18
2023-02-22T13:46:59.544Z,3.92
2023-02-22T13:49:50.746Z,3.80
2023-02-22T13:52:25.507Z,3.67
2023-02-22T13:55:01.762Z,3.63
2023-02-22T13:57:41.064Z,3.72
2023-02-22T14:00:43.283Z,4.40
2023-02-22T14:03:36.671Z,3.78
2023-02-22T14:06:10.181Z,3.55
2023-02-22T14:08:43.445Z,4.20
2023-02-22T14:11:43.926Z,4.03
2023-02-22T14:14:20.702Z,4.00
2023-02-22T14:17:27.589Z,3.75
2023-02-22T14:20:30.443Z,3.38
2023-02-22T14:23:37.320Z,4.35
2023-02-22T14:26:20.527Z,4.07
2023-02-22T14:28:57.744Z,3.90
2023-02-22T14:31:37.648Z,4.18
2023-02-22T14:34:16.441Z,3.83
2023-02-22T14:36:55.105Z,3.92
2023-02-22T14:39:37.896Z,4.45
2023-02-22T14:42:15.989Z,4.57
2023-02-22T14:44:57.678Z,3.78
2023-02-22T14:47:40.059Z,3.78
2023-02-22T14:50:23.437Z,3.95
2023-02-22T14:53:04.466Z,3.75
2023-02-22T14:55:42.149Z,4.20
2023-02-22T14:58:21.892Z,4.00
2023-02-22T15:00:57.215Z,3.47
2023-02-22T15:03:40.043Z,3.85
2023-02-22T15:09:30.224Z,4.20
2023-02-22T15:12:18.684Z,4.10
2023-02-22T15:14:52.017Z,4.05
2023-02-22T15:17:27.848Z,4.20
2023-02-22T15:20:02.263Z,3.55
2023-02-22T15:22:40.036Z,3.85
2023-02-22T15:25:15.243Z,4.20
2023-02-22T15:27:50.284Z,4.38
2023-02-22T15:30:30.091Z,3.58
2023-02-22T15:33:15.399Z,3.58
2023-02-22T15:35:57.050Z,3.80
2023-02-22T15:38:32.621Z,4.00
2023-02-22T15:41:08.868Z,4.20
2023-02-22T15:43:41.338Z,4.38
2023-02-22T15:46:16.461Z,4.25
2023-02-22T15:49:07.066Z,4.47
2023-02-22T15:51:46.779Z,4.15
2023-02-22T15:54:27.174Z,4.05
2023-02-22T15:57:00.369Z,3.90
2023-02-22T15:59:35.319Z,3.78
2023-02-22T16:02:08.545Z,4.60
2023-02-22T16:04:45.912Z,4.38
2023-02-22T16:07:24.417Z,3.97
2023-02-22T16:09:56.341Z,3.80
2023-02-22T16:12:31.027Z,3.58
2023-02-22T16:15:03.217Z,3.60
2023-02-22T16:17:56.050Z,5.35
2023-02-22T16:20:39.050Z,3.85
2023-02-22T16:23:29.132Z,3.50
2023-02-22T16:26:23.602Z,3.70
2023-02-22T16:28:58.331Z,4.03
2023-02-22T16:31:34.164Z,4.50
2023-02-22T16:34:06.921Z,4.13
2023-02-22T16:36:45.376Z,4.40
2023-02-22T16:39:25.289Z,3.70
2023-02-22T16:41:59.804Z,4.32
2023-02-22T16:44:31.617Z,4.38
2023-02-22T16:47:03.740Z,4.45
2023-02-22T16:49:35.122Z,3.92
2023-02-22T16:52:10.605Z,4.50
2023-02-22T16:54:48.831Z,4.25
2023-02-22T16:57:23.954Z,4.10
2023-02-22T16:59:55.573Z,4.32
2023-02-22T17:02:28.133Z,4.57
2023-02-22T17:04:59.919Z,4.35
2023-02-22T17:07:33.024Z,5.05
2023-02-22T17:10:08.903Z,5.32
2023-02-22T17:12:44.301Z,3.90
2023-02-22T17:15:24.998Z,4.45
2023-02-22T17:17:59.943Z,4.68
2023-02-22T17:20:33.180Z,5.32
2023-02-22T17:23:08.597Z,4.50
2023-02-22T17:25:45.985Z,4.97
2023-02-22T17:28:19.225Z,4.82
2023-02-22T17:30:52.268Z,4.93
2023-02-22T17:33:28.157Z,5.20
2023-02-22T17:36:02.418Z,4.65
2023-02-22T17:38:35.752Z,5.50
2023-02-22T17:41:11.627Z,5.43
2023-02-22T17:43:43.956Z,4.47
2023-02-22T17:46:16.129Z,5.07
2023-02-22T17:48:49.219Z,4.00
2023-02-22T17:51:21.481Z,4.60
2023-02-22T17:53:55.606Z,4.38
2023-02-22T17:56:29.898Z,4.68
2023-02-22T17:59:02.057Z,4.50
2023-02-22T18:01:35.838Z,3.80
2023-02-22T18:04:08.305Z,4.75
2023-02-22T18:06:53.783Z,4.22
2023-02-22T18:09:26.604Z,4.50
2023-02-22T18:12:01.825Z,4.40
2023-02-22T18:14:34.469Z,5.18
2023-02-22T18:17:06.219Z,4.72
2023-02-22T18:19:38.336Z,4.38
2023-02-22T18:22:11.012Z,4.40
2023-02-22T18:24:43.256Z,3.88
2023-02-22T18:27:18.004Z,4.60
2023-02-22T18:29:50.317Z,4.63
2023-02-22T18:32:22.418Z,4.90
2023-02-22T18:34:55.035Z,4.93
2023-02-22T18:37:28.579Z,4.70
2023-02-22T18:40:02.047Z,4.38
2023-02-22T18:42:40.353Z,5.03
2023-02-22T18:45:14.526Z,4.50
2023-02-22T18:47:47.537Z,5.03
2023-02-22T18:50:19.686Z,4.63
2023-02-22T18:52:51.312Z,4.80
2023-02-22T18:55:24.419Z,4.90
2023-02-22T18:57:59.745Z,4.30
2023-02-22T19:00:31.830Z,5.03
2023-02-22T19:03:05.535Z,5.35
2023-02-22T19:05:39.166Z,4.95
2023-02-22T19:08:11.849Z,5.15
2023-02-22T19:10:44.168Z,5.53
2023-02-22T19:13:19.408Z,5.60
2023-02-22T19:15:51.780Z,5.97
2023-02-22T19:18:24.009Z,5.25
2023-02-22T19:21:00.187Z,4.80
2023-02-22T19:23:34.536Z,4.97
2023-02-22T19:26:09.684Z,4.90
2023-02-22T19:28:44.520Z,5.40
2023-02-22T19:31:18.586Z,5.07
2023-02-22T19:33:53.844Z,5.55
2023-02-22T19:36:26.479Z,5.43
2023-02-22T19:38:58.324Z,5.68
2023-02-22T19:41:30.679Z,5.18
2023-02-22T19:44:05.179Z,5.22
2023-02-22T19:46:38.072Z,5.30
2023-02-22T19:49:10.912Z,5.20
2023-02-22T19:51:43.153Z,6.03
2023-02-22T19:54:21.161Z,5.57
2023-02-22T19:56:54.824Z,5.60
2023-02-22T19:59:29.171Z,5.70
2023-02-22T20:02:03.002Z,5.18
2023-02-22T20:04:34.392Z,4.95
2023-02-22T20:07:06.587Z,5.45
2023-02-22T20:09:40.705Z,5.22
2023-02-22T20:12:12.454Z,5.78
2023-02-22T20:14:46.913Z,5.45
2023-02-22T20:17:18.706Z,4.93
2023-02-22T20:19:50.748Z,5.63
2023-02-22T20:22:22.698Z,5.60
2023-02-22T20:24:54.267Z,6.35
2023-02-22T20:27:27.486Z,5.28
2023-02-22T20:30:01.651Z,5.18
2023-02-22T20:32:36.013Z,5.60
2023-02-22T20:35:08.998Z,6.50
2023-02-22T20:37:42.749Z,5.40
2023-02-22T20:40:14.316Z,5.53
2023-02-22T20:42:47.951Z,5.80
2023-02-22T20:45:21.977Z,5.88
2023-02-22T20:47:54.959Z,6.20
2023-02-22T20:50:26.512Z,6.20
2023-02-22T20:52:59.205Z,5.63
2023-02-22T20:55:31.519Z,5.85
2023-02-22T20:58:03.809Z,6.45
2023-02-22T21:00:38.119Z,7.05
2023-02-22T21:03:10.319Z,6.18
2023-02-22T21:05:45.844Z,6.68
2023-02-22T21:08:18.666Z,6.13
2023-02-22T21:10:51.788Z,6.32
2023-02-22T21:13:24.926Z,6.43
2023-02-22T21:15:59.930Z,6.53
2023-02-22T21:18:32.313Z,6.65
2023-02-22T21:21:10.632Z,6.95
2023-02-22T21:23:44.547Z,7.35
2023-02-22T21:26:19.056Z,7.13
2023-02-22T21:28:51.922Z,6.75
2023-02-22T21:31:28.247Z,6.57
2023-02-22T21:34:02.614Z,7.00
2023-02-22T21:36:35.408Z,7.38
2023-02-22T21:39:18.470Z,7.63
2023-02-22T21:44:47.235Z,7.10
2023-02-22T21:47:22.299Z,7.53
2023-02-22T21:49:54.112Z,7.97
2023-02-22T21:52:26.774Z,7.97
2023-02-22T21:54:58.694Z,8.00
2023-02-22T21:57:32.430Z,8.13
2023-02-22T22:00:13.120Z,7.43
2023-02-22T22:02:49.302Z,8.02
2023-02-22T22:05:31.950Z,8.23
2023-02-22T22:08:05.863Z,8.63
2023-02-22T22:10:37.050Z,7.88
2023-02-22T22:13:09.233Z,8.35
2023-02-22T22:15:40.934Z,8.15
2023-02-22T22:18:18.434Z,9.18
2023-02-22T22:20:52.026Z,8.70
2023-02-22T22:23:26.688Z,9.40
2023-02-22T22:26:09.941Z,8.75
2023-02-22T22:28:46.364Z,11.15
2023-02-22T22:31:24.187Z,9.25
2023-02-22T22:34:00.570Z,10.15
2023-02-22T22:36:34.964Z,9.30
2023-02-22T22:39:14.621Z,9.38
2023-02-22T22:41:50.286Z,10.48
2023-02-22T22:44:22.628Z,10.85
2023-02-22T22:47:06.207Z,10.10
2023-02-22T22:49:43.105Z,10.43
2023-02-22T22:52:16.766Z,11.05
2023-02-22T22:54:50.925Z,10.43
2023-02-22T22:57:23.810Z,10.55
2023-02-22T22:59:56.289Z,10.38
2023-02-22T23:02:29.472Z,11.10
2023-02-22T23:05:13.153Z,11.70
2023-02-22T23:07:45.017Z,10.90
2023-02-22T23:10:17.138Z,11.57
2023-02-22T23:12:48.916Z,11.80
2023-02-22T23:15:21.288Z,11.63
2023-02-22T23:17:56.290Z,11.90
2023-02-22T23:20:31.022Z,11.55
2023-02-22T23:23:03.032Z,11.57
2023-02-22T23:25:35.261Z,11.93
2023-02-22T23:28:14.894Z,11.98
2023-02-22T23:30:47.263Z,11.43
2023-02-22T23:33:19.501Z,12.00
2023-02-22T23:35:54.388Z,13.13
2023-02-22T23:38:26.981Z,12.65
2023-02-22T23:40:59.463Z,12.88
2023-02-22T23:43:32.795Z,13.05
2023-02-22T23:46:11.029Z,13.30
2023-02-22T23:48:46.841Z,13.15
2023-02-22T23:51:25.825Z,13.43
2023-02-22T23:53:58.668Z,12.75
2023-02-22T23:56:31.299Z,13.63
2023-02-22T23:59:06.995Z,14.75
